LFQQ/LIL METAR and TAF weather

Enter ICAO airport designator
Station Type Date Time Source
LFQQ METAR 2022/01/23 11:30 UTC NOAA

LFQQ 231130Z AUTO 14005KT 8000 OVC024 05/02 Q1036 NOSIG


Station Type Date Time Source
LFQQ Decoded METAR 2022/01/23 11:30 UTC NOAA

Lille, France (LFQQ) 50-34N 003-06E 52M
Jan 23, 2022 - 06:30 AM EST / 2022.01.23 1130 UTC
Wind: from the SE (140 degrees) at 6 MPH (5 KT):0
Visibility: 4 mile(s):0
Sky conditions: overcast
Temperature: 41 F (5 C)
Dew Point: 35 F (2 C)
Relative Humidity: 80%
Pressure (altimeter): 30.59 in. Hg (1036 hPa)
ob: LFQQ 231130Z AUTO 14005KT 8000 OVC024 05/02 Q1036 NOSIG
cycle: 11

Station Type Date Time Source
LFQQ TAF 2022/01/23 12:21 UTC NOAA

TAF LFQQ 231100Z 2312/2418 VRB03KT 9999 OVC025
BECMG 2400/2402 NSC PROB40 2405/2411 4000 BR

Example: see airport list